Terminal Aerodrome Forecast
Issued by NWS

Home | Current Version | Previous Version | Text Only | Print | Product List | Glossary Off
Versions: 1 2 3 4 5 6 7 8 9 10 11 12

000
FTUS45 KGGW 292300
TAFSDY
TAF
KSDY 292320Z 3000/3024 29011G21KT P6SM FEW080 BKN250
     FM300200 28009KT P6SM BKN250
     FM301200 27011KT P6SM SCT250
      AMD LTD TO CLD VIS AND WIND=

USA.gov is the U.S. government's official web portal to all federal, state and local government web resources and services.